Alpena County Regional Airport Alpena US
ICAO: KAPN
IATA: APN
Category: Medium
Scheduled Services: Yes

Elevation: 690 ft
TransAlt. 18000 ft.

Airport Communications:
APP/DEP:128.425
ASOS:120.675
CTAF:121.35
GND:121.9
PTD:37.22
LANSING RDO:108.8
TWR:121.35
UNICOM:122.95

KAPN Zoom In..

If you have problems with the map follow the link
https://www.worldairports.se/pages/airport.php?
ICAO=KAPN

Runways:

(A) RW 01 length 9001 ft width 150 ft
ILS 109.70 / hdg 7

(B) RW 07 length 5028 ft width 100 ft
---- / hdg 67

(C) RW 19 length 9001 ft width 150 ft
---- / hdg 187

(D) RW 25 length 5028 ft width 100 ft
---- / hdg 247

Location; KAPN
Day. 20 / Time. 20.54 Zulu
* Altimeter: 29.90
* Temperature: -02° c. -28.4°f.
* Wind from: 100° Speed 14 kn with Gusts up to 24 kn.
Dewpoint: -06° c.
Visibility: 10 Statute Miles.
Clouds: Few 1500 ft.
Clouds: Overcast 5000 ft.

KAPN 202054Z AUTO 10014G24KT 10SM FEW015 OVC050 M02/M06 A2990 RMK AO2 PK WND 11027/2032 SLP140 60000 T10221061 56069


Wind From 100°
Speed 14 kn.

 
 
jpsmedia.com for Web Design worldairports.se 2019   terms of use